sensor_id;sensor_type;location;lat;lon;timestamp;P1;durP1;ratioP1;P2;durP2;ratioP2
37069;SDS011;22984;48.862;9.320;2023-02-28T00:01:13;5.20;;;2.60;;
37069;SDS011;22984;48.862;9.320;2023-02-28T00:03:39;6.20;;;2.28;;
37069;SDS011;22984;48.862;9.320;2023-02-28T00:06:05;3.95;;;2.40;;
37069;SDS011;22984;48.862;9.320;2023-02-28T00:08:32;4.47;;;2.40;;
37069;SDS011;22984;48.862;9.320;2023-02-28T00:11:02;4.22;;;2.60;;
37069;SDS011;22984;48.862;9.320;2023-02-28T00:13:28;2.97;;;2.58;;
37069;SDS011;22984;48.862;9.320;2023-02-28T00:16:05;5.18;;;2.75;;
37069;SDS011;22984;48.862;9.320;2023-02-28T00:18:31;4.13;;;2.78;;
37069;SDS011;22984;48.862;9.320;2023-02-28T00:20:58;4.15;;;2.60;;
37069;SDS011;22984;48.862;9.320;2023-02-28T00:23:24;3.55;;;2.35;;
37069;SDS011;22984;48.862;9.320;2023-02-28T00:25:51;3.53;;;2.28;;
37069;SDS011;22984;48.862;9.320;2023-02-28T00:28:17;6.75;;;3.08;;
37069;SDS011;22984;48.862;9.320;2023-02-28T00:30:43;4.20;;;2.40;;
37069;SDS011;22984;48.862;9.320;2023-02-28T00:33:09;7.60;;;2.80;;
37069;SDS011;22984;48.862;9.320;2023-02-28T00:35:35;4.68;;;2.10;;
37069;SDS011;22984;48.862;9.320;2023-02-28T00:38:02;4.47;;;2.08;;
37069;SDS011;22984;48.862;9.320;2023-02-28T00:40:28;2.40;;;2.20;;
37069;SDS011;22984;48.862;9.320;2023-02-28T00:42:54;4.47;;;2.40;;
37069;SDS011;22984;48.862;9.320;2023-02-28T00:45:20;5.03;;;2.30;;
37069;SDS011;22984;48.862;9.320;2023-02-28T00:47:46;3.33;;;2.65;;
37069;SDS011;22984;48.862;9.320;2023-02-28T00:50:16;5.93;;;2.80;;
37069;SDS011;22984;48.862;9.320;2023-02-28T00:52:42;2.65;;;2.25;;
37069;SDS011;22984;48.862;9.320;2023-02-28T00:55:08;4.10;;;2.30;;
37069;SDS011;22984;48.862;9.320;2023-02-28T00:57:35;3.65;;;2.65;;
37069;SDS011;22984;48.862;9.320;2023-02-28T01:00:01;4.47;;;2.27;;
37069;SDS011;22984;48.862;9.320;2023-02-28T01:02:27;6.35;;;2.67;;
37069;SDS011;22984;48.862;9.320;2023-02-28T01:04:53;2.63;;;2.20;;
37069;SDS011;22984;48.862;9.320;2023-02-28T01:07:19;4.93;;;2.67;;
37069;SDS011;22984;48.862;9.320;2023-02-28T01:09:45;3.78;;;2.75;;
37069;SDS011;22984;48.862;9.320;2023-02-28T01:12:11;3.08;;;2.42;;
37069;SDS011;22984;48.862;9.320;2023-02-28T01:14:37;4.63;;;2.65;;
37069;SDS011;22984;48.862;9.320;2023-02-28T01:17:03;3.13;;;2.83;;
37069;SDS011;22984;48.862;9.320;2023-02-28T01:19:29;4.45;;;2.95;;
37069;SDS011;22984;48.862;9.320;2023-02-28T01:21:55;4.18;;;2.83;;
37069;SDS011;22984;48.862;9.320;2023-02-28T01:24:21;2.83;;;2.63;;
37069;SDS011;22984;48.862;9.320;2023-02-28T01:26:47;3.78;;;2.97;;
37069;SDS011;22984;48.862;9.320;2023-02-28T01:29:13;4.65;;;2.90;;
37069;SDS011;22984;48.862;9.320;2023-02-28T01:31:40;3.90;;;2.50;;
37069;SDS011;22984;48.862;9.320;2023-02-28T01:34:06;4.93;;;3.05;;
37069;SDS011;22984;48.862;9.320;2023-02-28T01:36:32;4.20;;;3.03;;
37069;SDS011;22984;48.862;9.320;2023-02-28T01:38:58;3.63;;;3.33;;
37069;SDS011;22984;48.862;9.320;2023-02-28T01:41:26;3.25;;;2.75;;
37069;SDS011;22984;48.862;9.320;2023-02-28T01:44:03;4.10;;;2.95;;
37069;SDS011;22984;48.862;9.320;2023-02-28T01:46:30;5.38;;;3.40;;
37069;SDS011;22984;48.862;9.320;2023-02-28T01:48:59;3.83;;;3.28;;
37069;SDS011;22984;48.862;9.320;2023-02-28T01:51:31;4.32;;;3.00;;
37069;SDS011;22984;48.862;9.320;2023-02-28T01:54:00;4.88;;;3.28;;
37069;SDS011;22984;48.862;9.320;2023-02-28T01:56:27;4.43;;;3.10;;
37069;SDS011;22984;48.862;9.320;2023-02-28T01:58:55;4.20;;;3.10;;
37069;SDS011;22984;48.862;9.320;2023-02-28T02:01:21;4.82;;;3.08;;
37069;SDS011;22984;48.862;9.320;2023-02-28T02:03:48;4.75;;;3.38;;
37069;SDS011;22984;48.862;9.320;2023-02-28T02:06:20;3.38;;;3.05;;
37069;SDS011;22984;48.862;9.320;2023-02-28T02:08:46;5.78;;;3.53;;
37069;SDS011;22984;48.862;9.320;2023-02-28T02:11:12;4.05;;;3.65;;
37069;SDS011;22984;48.862;9.320;2023-02-28T02:18:43;3.60;;;3.30;;
37069;SDS011;22984;48.862;9.320;2023-02-28T02:21:16;4.53;;;3.88;;
37069;SDS011;22984;48.862;9.320;2023-02-28T02:23:51;3.60;;;3.30;;
37069;SDS011;22984;48.862;9.320;2023-02-28T02:36:24;4.07;;;3.67;;
37069;SDS011;22984;48.862;9.320;2023-02-28T02:38:53;4.00;;;3.60;;
37069;SDS011;22984;48.862;9.320;2023-02-28T02:41:39;6.13;;;3.97;;
37069;SDS011;22984;48.862;9.320;2023-02-28T02:46:33;4.40;;;3.75;;
37069;SDS011;22984;48.862;9.320;2023-02-28T02:49:03;4.05;;;3.65;;
37069;SDS011;22984;48.862;9.320;2023-02-28T02:51:31;5.53;;;3.58;;
37069;SDS011;22984;48.862;9.320;2023-02-28T02:56:42;6.03;;;4.00;;
37069;SDS011;22984;48.862;9.320;2023-02-28T02:59:11;5.47;;;4.15;;
37069;SDS011;22984;48.862;9.320;2023-02-28T03:01:38;4.15;;;3.65;;
37069;SDS011;22984;48.862;9.320;2023-02-28T03:04:07;4.30;;;3.70;;
37069;SDS011;22984;48.862;9.320;2023-02-28T03:06:33;5.93;;;3.90;;
37069;SDS011;22984;48.862;9.320;2023-02-28T03:09:00;4.63;;;3.83;;
37069;SDS011;22984;48.862;9.320;2023-02-28T03:11:26;5.53;;;4.70;;
37069;SDS011;22984;48.862;9.320;2023-02-28T03:18:57;4.75;;;3.78;;
37069;SDS011;22984;48.862;9.320;2023-02-28T03:21:27;4.68;;;3.88;;
37069;SDS011;22984;48.862;9.320;2023-02-28T03:24:08;6.90;;;4.25;;
37069;SDS011;22984;48.862;9.320;2023-02-28T03:26:39;4.97;;;4.25;;
37069;SDS011;22984;48.862;9.320;2023-02-28T03:29:10;7.03;;;4.57;;
37069;SDS011;22984;48.862;9.320;2023-02-28T03:31:44;5.50;;;4.00;;
37069;SDS011;22984;48.862;9.320;2023-02-28T03:34:32;4.97;;;4.20;;
37069;SDS011;22984;48.862;9.320;2023-02-28T03:37:01;5.25;;;4.75;;
37069;SDS011;22984;48.862;9.320;2023-02-28T03:39:29;5.00;;;3.85;;
37069;SDS011;22984;48.862;9.320;2023-02-28T03:42:00;6.60;;;4.22;;
37069;SDS011;22984;48.862;9.320;2023-02-28T03:44:30;6.25;;;4.25;;
37069;SDS011;22984;48.862;9.320;2023-02-28T03:47:06;7.10;;;4.57;;
37069;SDS011;22984;48.862;9.320;2023-02-28T03:49:39;5.45;;;4.32;;
37069;SDS011;22984;48.862;9.320;2023-02-28T03:52:08;7.60;;;4.50;;
37069;SDS011;22984;48.862;9.320;2023-02-28T03:54:37;5.95;;;5.32;;
37069;SDS011;22984;48.862;9.320;2023-02-28T03:57:27;6.10;;;4.47;;
37069;SDS011;22984;48.862;9.320;2023-02-28T04:02:37;4.77;;;4.37;;
37069;SDS011;22984;48.862;9.320;2023-02-28T04:05:04;4.88;;;4.38;;
37069;SDS011;22984;48.862;9.320;2023-02-28T04:07:30;7.22;;;4.68;;
37069;SDS011;22984;48.862;9.320;2023-02-28T04:09:56;5.97;;;4.47;;
37069;SDS011;22984;48.862;9.320;2023-02-28T04:12:23;5.77;;;4.80;;
37069;SDS011;22984;48.862;9.320;2023-02-28T04:14:49;7.10;;;4.43;;
37069;SDS011;22984;48.862;9.320;2023-02-28T04:17:15;4.90;;;4.50;;
37069;SDS011;22984;48.862;9.320;2023-02-28T04:19:41;6.43;;;5.00;;
37069;SDS011;22984;48.862;9.320;2023-02-28T04:22:08;5.77;;;4.07;;
37069;SDS011;22984;48.862;9.320;2023-02-28T04:24:34;5.75;;;4.28;;
37069;SDS011;22984;48.862;9.320;2023-02-28T04:27:00;8.40;;;5.30;;
37069;SDS011;22984;48.862;9.320;2023-02-28T04:29:27;4.88;;;4.47;;
37069;SDS011;22984;48.862;9.320;2023-02-28T04:31:54;6.80;;;5.03;;
37069;SDS011;22984;48.862;9.320;2023-02-28T04:34:22;5.18;;;4.72;;
37069;SDS011;22984;48.862;9.320;2023-02-28T04:36:49;10.35;;;4.80;;
37069;SDS011;22984;48.862;9.320;2023-02-28T04:39:16;5.47;;;4.90;;
37069;SDS011;22984;48.862;9.320;2023-02-28T04:41:43;7.78;;;5.40;;
37069;SDS011;22984;48.862;9.320;2023-02-28T04:44:09;4.93;;;4.45;;
37069;SDS011;22984;48.862;9.320;2023-02-28T04:46:35;7.57;;;5.18;;
37069;SDS011;22984;48.862;9.320;2023-02-28T04:49:02;4.93;;;4.50;;
37069;SDS011;22984;48.862;9.320;2023-02-28T04:51:28;10.27;;;4.82;;
37069;SDS011;22984;48.862;9.320;2023-02-28T04:53:54;5.13;;;4.63;;
37069;SDS011;22984;48.862;9.320;2023-02-28T04:56:20;5.07;;;4.60;;
37069;SDS011;22984;48.862;9.320;2023-02-28T04:58:47;6.20;;;5.50;;
37069;SDS011;22984;48.862;9.320;2023-02-28T05:01:20;6.80;;;4.80;;
37069;SDS011;22984;48.862;9.320;2023-02-28T05:03:47;6.03;;;5.47;;
37069;SDS011;22984;48.862;9.320;2023-02-28T05:06:13;6.50;;;5.00;;
37069;SDS011;22984;48.862;9.320;2023-02-28T05:08:40;5.35;;;4.85;;
37069;SDS011;22984;48.862;9.320;2023-02-28T05:11:07;8.45;;;5.93;;
37069;SDS011;22984;48.862;9.320;2023-02-28T05:13:33;7.10;;;5.55;;
37069;SDS011;22984;48.862;9.320;2023-02-28T05:16:00;5.65;;;5.10;;
37069;SDS011;22984;48.862;9.320;2023-02-28T05:18:26;8.23;;;5.25;;
37069;SDS011;22984;48.862;9.320;2023-02-28T05:20:52;5.83;;;5.10;;
37069;SDS011;22984;48.862;9.320;2023-02-28T05:23:18;6.07;;;5.47;;
37069;SDS011;22984;48.862;9.320;2023-02-28T05:25:45;7.60;;;5.57;;
37069;SDS011;22984;48.862;9.320;2023-02-28T05:28:11;6.18;;;5.57;;
37069;SDS011;22984;48.862;9.320;2023-02-28T05:30:37;9.27;;;5.80;;
37069;SDS011;22984;48.862;9.320;2023-02-28T05:33:03;6.22;;;5.63;;
37069;SDS011;22984;48.862;9.320;2023-02-28T05:35:29;6.88;;;5.55;;
37069;SDS011;22984;48.862;9.320;2023-02-28T05:37:55;6.40;;;5.80;;
37069;SDS011;22984;48.862;9.320;2023-02-28T05:40:21;6.53;;;5.20;;
37069;SDS011;22984;48.862;9.320;2023-02-28T05:42:48;7.93;;;5.45;;
37069;SDS011;22984;48.862;9.320;2023-02-28T05:45:15;7.60;;;5.75;;
37069;SDS011;22984;48.862;9.320;2023-02-28T05:47:42;6.50;;;5.90;;
37069;SDS011;22984;48.862;9.320;2023-02-28T05:50:08;6.55;;;5.95;;
37069;SDS011;22984;48.862;9.320;2023-02-28T05:52:35;6.90;;;5.22;;
37069;SDS011;22984;48.862;9.320;2023-02-28T05:55:01;5.93;;;5.30;;
37069;SDS011;22984;48.862;9.320;2023-02-28T05:57:28;6.85;;;5.65;;
37069;SDS011;22984;48.862;9.320;2023-02-28T05:59:54;7.25;;;5.63;;
37069;SDS011;22984;48.862;9.320;2023-02-28T06:02:20;6.45;;;5.45;;
37069;SDS011;22984;48.862;9.320;2023-02-28T06:04:46;7.93;;;5.55;;
37069;SDS011;22984;48.862;9.320;2023-02-28T06:07:12;6.85;;;5.97;;
37069;SDS011;22984;48.862;9.320;2023-02-28T06:09:38;7.60;;;5.57;;
37069;SDS011;22984;48.862;9.320;2023-02-28T06:12:04;8.93;;;6.07;;
37069;SDS011;22984;48.862;9.320;2023-02-28T06:14:32;8.07;;;5.80;;
37069;SDS011;22984;48.862;9.320;2023-02-28T06:16:59;7.13;;;5.65;;
37069;SDS011;22984;48.862;9.320;2023-02-28T06:19:26;7.43;;;6.30;;
37069;SDS011;22984;48.862;9.320;2023-02-28T06:21:52;11.43;;;6.05;;
37069;SDS011;22984;48.862;9.320;2023-02-28T06:24:19;6.73;;;5.67;;
37069;SDS011;22984;48.862;9.320;2023-02-28T06:26:45;6.93;;;6.07;;
37069;SDS011;22984;48.862;9.320;2023-02-28T06:29:11;8.85;;;6.80;;
37069;SDS011;22984;48.862;9.320;2023-02-28T06:31:41;9.15;;;6.05;;
37069;SDS011;22984;48.862;9.320;2023-02-28T06:34:08;8.23;;;6.17;;
37069;SDS011;22984;48.862;9.320;2023-02-28T06:36:36;9.05;;;6.25;;
37069;SDS011;22984;48.862;9.320;2023-02-28T06:39:02;7.50;;;6.43;;
37069;SDS011;22984;48.862;9.320;2023-02-28T06:41:28;8.25;;;6.45;;
37069;SDS011;22984;48.862;9.320;2023-02-28T06:43:54;8.50;;;6.30;;
37069;SDS011;22984;48.862;9.320;2023-02-28T06:46:21;7.80;;;6.43;;
37069;SDS011;22984;48.862;9.320;2023-02-28T06:48:47;6.38;;;5.78;;
37069;SDS011;22984;48.862;9.320;2023-02-28T06:51:18;8.45;;;6.95;;
37069;SDS011;22984;48.862;9.320;2023-02-28T06:53:49;6.95;;;6.30;;
37069;SDS011;22984;48.862;9.320;2023-02-28T06:56:15;8.25;;;6.40;;
37069;SDS011;22984;48.862;9.320;2023-02-28T06:58:42;8.23;;;6.40;;
37069;SDS011;22984;48.862;9.320;2023-02-28T07:01:08;7.15;;;6.43;;
37069;SDS011;22984;48.862;9.320;2023-02-28T07:03:35;7.85;;;6.13;;
37069;SDS011;22984;48.862;9.320;2023-02-28T07:06:01;8.77;;;6.25;;
37069;SDS011;22984;48.862;9.320;2023-02-28T07:08:29;8.45;;;6.35;;
37069;SDS011;22984;48.862;9.320;2023-02-28T07:10:56;14.13;;;6.65;;
37069;SDS011;22984;48.862;9.320;2023-02-28T07:13:23;16.58;;;6.80;;
37069;SDS011;22984;48.862;9.320;2023-02-28T07:15:53;8.45;;;6.00;;
37069;SDS011;22984;48.862;9.320;2023-02-28T07:18:19;8.40;;;6.45;;
37069;SDS011;22984;48.862;9.320;2023-02-28T07:20:45;10.63;;;7.18;;
37069;SDS011;22984;48.862;9.320;2023-02-28T07:23:11;9.45;;;6.38;;
37069;SDS011;22984;48.862;9.320;2023-02-28T07:25:37;9.20;;;5.97;;
37069;SDS011;22984;48.862;9.320;2023-02-28T07:28:04;10.05;;;6.38;;
37069;SDS011;22984;48.862;9.320;2023-02-28T07:30:30;9.88;;;6.60;;
37069;SDS011;22984;48.862;9.320;2023-02-28T07:32:56;10.23;;;6.60;;
37069;SDS011;22984;48.862;9.320;2023-02-28T07:35:22;10.35;;;6.18;;
37069;SDS011;22984;48.862;9.320;2023-02-28T07:37:48;10.23;;;5.95;;
37069;SDS011;22984;48.862;9.320;2023-02-28T07:40:15;9.20;;;6.43;;
37069;SDS011;22984;48.862;9.320;2023-02-28T07:42:42;9.82;;;6.97;;
37069;SDS011;22984;48.862;9.320;2023-02-28T07:45:09;9.60;;;7.13;;
37069;SDS011;22984;48.862;9.320;2023-02-28T07:47:36;9.63;;;7.07;;
37069;SDS011;22984;48.862;9.320;2023-02-28T07:50:03;11.05;;;6.80;;
37069;SDS011;22984;48.862;9.320;2023-02-28T07:52:29;7.43;;;6.55;;
37069;SDS011;22984;48.862;9.320;2023-02-28T07:54:55;7.53;;;6.73;;
37069;SDS011;22984;48.862;9.320;2023-02-28T07:57:21;9.83;;;7.73;;
37069;SDS011;22984;48.862;9.320;2023-02-28T07:59:47;9.20;;;6.82;;
37069;SDS011;22984;48.862;9.320;2023-02-28T08:02:17;9.00;;;7.55;;
37069;SDS011;22984;48.862;9.320;2023-02-28T08:04:44;7.83;;;6.57;;
37069;SDS011;22984;48.862;9.320;2023-02-28T08:07:12;9.10;;;7.20;;
37069;SDS011;22984;48.862;9.320;2023-02-28T08:09:39;10.18;;;6.93;;
37069;SDS011;22984;48.862;9.320;2023-02-28T08:12:05;8.02;;;6.97;;
37069;SDS011;22984;48.862;9.320;2023-02-28T08:14:32;9.18;;;6.95;;
37069;SDS011;22984;48.862;9.320;2023-02-28T08:16:58;10.13;;;6.88;;
37069;SDS011;22984;48.862;9.320;2023-02-28T08:19:24;6.97;;;6.40;;
37069;SDS011;22984;48.862;9.320;2023-02-28T08:21:50;9.48;;;7.25;;
37069;SDS011;22984;48.862;9.320;2023-02-28T08:24:16;10.23;;;6.90;;
37069;SDS011;22984;48.862;9.320;2023-02-28T08:26:42;9.40;;;6.88;;
37069;SDS011;22984;48.862;9.320;2023-02-28T08:29:08;9.68;;;7.07;;
37069;SDS011;22984;48.862;9.320;2023-02-28T08:31:34;7.47;;;6.73;;
37069;SDS011;22984;48.862;9.320;2023-02-28T08:34:11;9.20;;;7.10;;
37069;SDS011;22984;48.862;9.320;2023-02-28T08:36:37;8.23;;;6.93;;
37069;SDS011;22984;48.862;9.320;2023-02-28T08:39:03;11.93;;;6.90;;
37069;SDS011;22984;48.862;9.320;2023-02-28T08:41:30;27.08;;;10.52;;
37069;SDS011;22984;48.862;9.320;2023-02-28T08:43:56;10.43;;;7.13;;
37069;SDS011;22984;48.862;9.320;2023-02-28T08:46:22;13.63;;;7.88;;
37069;SDS011;22984;48.862;9.320;2023-02-28T08:48:51;8.90;;;7.00;;
37069;SDS011;22984;48.862;9.320;2023-02-28T08:51:18;18.08;;;8.70;;
37069;SDS011;22984;48.862;9.320;2023-02-28T08:53:50;11.05;;;7.57;;
37069;SDS011;22984;48.862;9.320;2023-02-28T08:56:16;10.65;;;7.07;;
37069;SDS011;22984;48.862;9.320;2023-02-28T08:58:43;8.60;;;7.07;;
37069;SDS011;22984;48.862;9.320;2023-02-28T09:01:10;10.25;;;7.22;;
37069;SDS011;22984;48.862;9.320;2023-02-28T09:03:37;7.45;;;6.60;;
37069;SDS011;22984;48.862;9.320;2023-02-28T09:06:03;20.33;;;9.18;;
37069;SDS011;22984;48.862;9.320;2023-02-28T09:08:29;14.95;;;8.75;;
37069;SDS011;22984;48.862;9.320;2023-02-28T09:10:56;19.20;;;9.45;;
37069;SDS011;22984;48.862;9.320;2023-02-28T09:13:23;12.50;;;7.38;;
37069;SDS011;22984;48.862;9.320;2023-02-28T09:15:49;9.07;;;7.57;;
37069;SDS011;22984;48.862;9.320;2023-02-28T09:18:16;18.13;;;8.50;;
37069;SDS011;22984;48.862;9.320;2023-02-28T09:20:42;20.92;;;9.50;;
37069;SDS011;22984;48.862;9.320;2023-02-28T09:23:09;9.27;;;7.27;;
37069;SDS011;22984;48.862;9.320;2023-02-28T09:25:36;11.82;;;7.30;;
37069;SDS011;22984;48.862;9.320;2023-02-28T09:28:02;8.55;;;7.03;;
37069;SDS011;22984;48.862;9.320;2023-02-28T09:30:29;13.05;;;7.93;;
37069;SDS011;22984;48.862;9.320;2023-02-28T09:32:55;20.48;;;8.38;;
37069;SDS011;22984;48.862;9.320;2023-02-28T09:35:21;9.48;;;7.47;;
37069;SDS011;22984;48.862;9.320;2023-02-28T09:37:48;9.63;;;8.27;;
37069;SDS011;22984;48.862;9.320;2023-02-28T09:40:15;7.80;;;7.00;;
37069;SDS011;22984;48.862;9.320;2023-02-28T09:42:48;9.18;;;7.55;;
37069;SDS011;22984;48.862;9.320;2023-02-28T09:47:54;13.23;;;7.90;;
37069;SDS011;22984;48.862;9.320;2023-02-28T09:50:32;9.77;;;8.32;;
37069;SDS011;22984;48.862;9.320;2023-02-28T09:52:59;8.23;;;7.30;;
37069;SDS011;22984;48.862;9.320;2023-02-28T09:55:29;10.68;;;8.68;;
37069;SDS011;22984;48.862;9.320;2023-02-28T09:57:56;9.88;;;7.75;;
37069;SDS011;22984;48.862;9.320;2023-02-28T10:00:28;8.90;;;7.60;;
37069;SDS011;22984;48.862;9.320;2023-02-28T10:06:11;9.63;;;7.85;;
37069;SDS011;22984;48.862;9.320;2023-02-28T10:11:00;8.55;;;7.65;;
37069;SDS011;22984;48.862;9.320;2023-02-28T10:15:55;12.97;;;8.80;;
37069;SDS011;22984;48.862;9.320;2023-02-28T10:18:24;8.55;;;7.75;;
37069;SDS011;22984;48.862;9.320;2023-02-28T10:20:50;9.95;;;7.55;;
37069;SDS011;22984;48.862;9.320;2023-02-28T10:23:25;10.57;;;7.38;;
37069;SDS011;22984;48.862;9.320;2023-02-28T10:25:54;9.52;;;8.50;;
37069;SDS011;22984;48.862;9.320;2023-02-28T10:28:20;9.38;;;8.07;;
37069;SDS011;22984;48.862;9.320;2023-02-28T10:30:50;11.70;;;8.70;;
37069;SDS011;22984;48.862;9.320;2023-02-28T10:33:50;8.82;;;7.50;;
37069;SDS011;22984;48.862;9.320;2023-02-28T10:36:10;10.13;;;8.67;;
37069;SDS011;22984;48.862;9.320;2023-02-28T10:38:39;8.82;;;8.00;;
37069;SDS011;22984;48.862;9.320;2023-02-28T10:43:31;8.77;;;7.25;;
37069;SDS011;22984;48.862;9.320;2023-02-28T10:46:09;8.88;;;7.60;;
37069;SDS011;22984;48.862;9.320;2023-02-28T10:48:41;8.35;;;7.50;;
37069;SDS011;22984;48.862;9.320;2023-02-28T10:51:08;8.97;;;7.40;;
37069;SDS011;22984;48.862;9.320;2023-02-28T10:56:09;9.40;;;8.25;;
37069;SDS011;22984;48.862;9.320;2023-02-28T10:58:46;9.30;;;7.88;;
37069;SDS011;22984;48.862;9.320;2023-02-28T11:01:18;10.15;;;7.72;;
37069;SDS011;22984;48.862;9.320;2023-02-28T11:03:45;8.60;;;7.80;;
37069;SDS011;22984;48.862;9.320;2023-02-28T11:06:16;8.30;;;7.57;;
37069;SDS011;22984;48.862;9.320;2023-02-28T11:08:43;8.00;;;7.18;;
37069;SDS011;22984;48.862;9.320;2023-02-28T11:11:10;7.78;;;7.00;;
37069;SDS011;22984;48.862;9.320;2023-02-28T11:13:36;11.40;;;8.53;;
37069;SDS011;22984;48.862;9.320;2023-02-28T11:16:04;8.17;;;7.40;;
37069;SDS011;22984;48.862;9.320;2023-02-28T11:18:34;8.80;;;7.38;;
37069;SDS011;22984;48.862;9.320;2023-02-28T11:21:02;7.30;;;6.70;;
37069;SDS011;22984;48.862;9.320;2023-02-28T11:23:29;8.77;;;6.80;;
37069;SDS011;22984;48.862;9.320;2023-02-28T11:25:58;6.95;;;6.25;;
37069;SDS011;22984;48.862;9.320;2023-02-28T11:31:05;7.07;;;6.60;;
37069;SDS011;22984;48.862;9.320;2023-02-28T11:33:37;9.80;;;6.95;;
37069;SDS011;22984;48.862;9.320;2023-02-28T11:36:09;8.57;;;7.47;;
37069;SDS011;22984;48.862;9.320;2023-02-28T11:38:36;7.50;;;6.80;;
37069;SDS011;22984;48.862;9.320;2023-02-28T11:44:15;7.93;;;7.22;;
37069;SDS011;22984;48.862;9.320;2023-02-28T11:46:41;8.37;;;7.00;;
37069;SDS011;22984;48.862;9.320;2023-02-28T11:49:20;7.37;;;6.83;;
37069;SDS011;22984;48.862;9.320;2023-02-28T11:52:00;7.53;;;6.82;;
37069;SDS011;22984;48.862;9.320;2023-02-28T11:56:58;7.50;;;6.80;;
37069;SDS011;22984;48.862;9.320;2023-02-28T12:04:43;8.02;;;7.38;;
37069;SDS011;22984;48.862;9.320;2023-02-28T12:07:15;8.32;;;7.32;;
37069;SDS011;22984;48.862;9.320;2023-02-28T12:10:05;7.00;;;6.40;;
37069;SDS011;22984;48.862;9.320;2023-02-28T12:15:13;6.88;;;6.18;;
37069;SDS011;22984;48.862;9.320;2023-02-28T12:17:55;6.28;;;5.78;;
37069;SDS011;22984;48.862;9.320;2023-02-28T12:23:17;6.55;;;5.95;;
37069;SDS011;22984;48.862;9.320;2023-02-28T12:28:32;6.57;;;6.07;;
37069;SDS011;22984;48.862;9.320;2023-02-28T12:33:26;7.28;;;6.55;;
37069;SDS011;22984;48.862;9.320;2023-02-28T12:35:57;6.53;;;5.90;;
37069;SDS011;22984;48.862;9.320;2023-02-28T12:38:31;6.65;;;6.15;;
37069;SDS011;22984;48.862;9.320;2023-02-28T12:41:01;8.68;;;7.03;;
37069;SDS011;22984;48.862;9.320;2023-02-28T12:43:32;6.82;;;6.25;;
37069;SDS011;22984;48.862;9.320;2023-02-28T12:46:09;7.32;;;6.63;;
37069;SDS011;22984;48.862;9.320;2023-02-28T12:51:07;7.93;;;6.18;;
37069;SDS011;22984;48.862;9.320;2023-02-28T12:56:20;7.15;;;6.55;;
37069;SDS011;22984;48.862;9.320;2023-02-28T12:58:52;7.32;;;6.60;;
37069;SDS011;22984;48.862;9.320;2023-02-28T13:01:34;10.75;;;6.45;;
37069;SDS011;22984;48.862;9.320;2023-02-28T13:09:13;7.45;;;6.88;;
37069;SDS011;22984;48.862;9.320;2023-02-28T13:11:50;7.43;;;6.43;;
37069;SDS011;22984;48.862;9.320;2023-02-28T13:14:22;7.32;;;6.68;;
37069;SDS011;22984;48.862;9.320;2023-02-28T13:16:56;6.82;;;6.25;;
37069;SDS011;22984;48.862;9.320;2023-02-28T13:19:23;18.35;;;6.43;;
37069;SDS011;22984;48.862;9.320;2023-02-28T13:21:50;6.50;;;4.95;;
37069;SDS011;22984;48.862;9.320;2023-02-28T13:29:32;8.60;;;5.85;;
37069;SDS011;22984;48.862;9.320;2023-02-28T13:34:32;8.23;;;6.45;;
37069;SDS011;22984;48.862;9.320;2023-02-28T13:37:30;6.47;;;5.87;;
37069;SDS011;22984;48.862;9.320;2023-02-28T13:42:35;6.07;;;5.70;;
37069;SDS011;22984;48.862;9.320;2023-02-28T13:47:36;6.85;;;5.93;;
37069;SDS011;22984;48.862;9.320;2023-02-28T14:03:29;6.53;;;5.95;;
37069;SDS011;22984;48.862;9.320;2023-02-28T14:08:35;6.53;;;5.93;;
37069;SDS011;22984;48.862;9.320;2023-02-28T14:11:15;6.65;;;6.13;;
37069;SDS011;22984;48.862;9.320;2023-02-28T14:13:49;6.67;;;6.23;;
37069;SDS011;22984;48.862;9.320;2023-02-28T14:16:16;6.33;;;5.93;;
37069;SDS011;22984;48.862;9.320;2023-02-28T14:18:48;6.85;;;6.38;;
37069;SDS011;22984;48.862;9.320;2023-02-28T14:21:26;6.85;;;6.30;;
37069;SDS011;22984;48.862;9.320;2023-02-28T14:37:11;6.75;;;5.93;;
37069;SDS011;22984;48.862;9.320;2023-02-28T14:39:40;6.45;;;5.85;;
37069;SDS011;22984;48.862;9.320;2023-02-28T14:44:54;9.27;;;7.30;;
37069;SDS011;22984;48.862;9.320;2023-02-28T14:47:21;7.40;;;6.67;;
37069;SDS011;22984;48.862;9.320;2023-02-28T14:49:49;7.55;;;7.05;;
37069;SDS011;22984;48.862;9.320;2023-02-28T14:52:17;7.45;;;6.90;;
37069;SDS011;22984;48.862;9.320;2023-02-28T14:54:44;7.38;;;6.72;;
37069;SDS011;22984;48.862;9.320;2023-02-28T14:57:24;9.15;;;6.95;;
37069;SDS011;22984;48.862;9.320;2023-02-28T14:59:58;7.25;;;6.68;;
37069;SDS011;22984;48.862;9.320;2023-02-28T15:02:25;19.48;;;7.65;;
37069;SDS011;22984;48.862;9.320;2023-02-28T15:04:52;8.20;;;7.40;;
37069;SDS011;22984;48.862;9.320;2023-02-28T15:07:18;7.35;;;6.85;;
37069;SDS011;22984;48.862;9.320;2023-02-28T15:09:44;7.20;;;6.65;;
37069;SDS011;22984;48.862;9.320;2023-02-28T15:12:14;7.80;;;7.10;;
37069;SDS011;22984;48.862;9.320;2023-02-28T15:14:42;9.00;;;7.63;;
37069;SDS011;22984;48.862;9.320;2023-02-28T15:17:11;7.90;;;7.13;;
37069;SDS011;22984;48.862;9.320;2023-02-28T15:19:42;7.38;;;6.78;;
37069;SDS011;22984;48.862;9.320;2023-02-28T15:22:14;9.38;;;8.13;;
37069;SDS011;22984;48.862;9.320;2023-02-28T15:27:12;6.88;;;6.28;;
37069;SDS011;22984;48.862;9.320;2023-02-28T15:29:47;6.55;;;6.05;;
37069;SDS011;22984;48.862;9.320;2023-02-28T15:32:37;7.15;;;6.60;;
37069;SDS011;22984;48.862;9.320;2023-02-28T15:37:53;7.30;;;6.60;;
37069;SDS011;22984;48.862;9.320;2023-02-28T15:40:25;7.70;;;6.95;;
37069;SDS011;22984;48.862;9.320;2023-02-28T15:43:25;7.55;;;6.95;;
37069;SDS011;22984;48.862;9.320;2023-02-28T15:48:15;8.63;;;6.87;;
37069;SDS011;22984;48.862;9.320;2023-02-28T15:50:42;7.55;;;6.85;;
37069;SDS011;22984;48.862;9.320;2023-02-28T15:53:12;7.45;;;6.82;;
37069;SDS011;22984;48.862;9.320;2023-02-28T15:55:39;8.23;;;7.43;;
37069;SDS011;22984;48.862;9.320;2023-02-28T15:58:08;7.90;;;7.20;;
37069;SDS011;22984;48.862;9.320;2023-02-28T16:00:37;8.57;;;7.77;;
37069;SDS011;22984;48.862;9.320;2023-02-28T16:03:22;8.32;;;7.53;;
37069;SDS011;22984;48.862;9.320;2023-02-28T16:06:07;7.45;;;6.78;;
37069;SDS011;22984;48.862;9.320;2023-02-28T16:08:33;9.38;;;7.10;;
37069;SDS011;22984;48.862;9.320;2023-02-28T16:10:59;9.18;;;7.28;;
37069;SDS011;22984;48.862;9.320;2023-02-28T16:13:25;8.40;;;7.60;;
37069;SDS011;22984;48.862;9.320;2023-02-28T16:15:51;8.75;;;7.93;;
37069;SDS011;22984;48.862;9.320;2023-02-28T16:18:17;10.60;;;7.90;;
37069;SDS011;22984;48.862;9.320;2023-02-28T16:20:43;8.60;;;7.82;;
37069;SDS011;22984;48.862;9.320;2023-02-28T16:23:09;12.90;;;9.23;;
37069;SDS011;22984;48.862;9.320;2023-02-28T16:25:36;8.75;;;7.95;;
37069;SDS011;22984;48.862;9.320;2023-02-28T16:28:02;16.38;;;8.38;;
37069;SDS011;22984;48.862;9.320;2023-02-28T16:30:29;11.87;;;8.03;;
37069;SDS011;22984;48.862;9.320;2023-02-28T16:32:58;10.68;;;7.93;;
37069;SDS011;22984;48.862;9.320;2023-02-28T16:35:24;8.80;;;7.90;;
37069;SDS011;22984;48.862;9.320;2023-02-28T16:37:52;7.75;;;7.05;;
37069;SDS011;22984;48.862;9.320;2023-02-28T16:40:20;8.73;;;7.82;;
37069;SDS011;22984;48.862;9.320;2023-02-28T16:42:47;9.13;;;8.23;;
37069;SDS011;22984;48.862;9.320;2023-02-28T16:45:17;13.40;;;8.73;;
37069;SDS011;22984;48.862;9.320;2023-02-28T16:47:44;9.10;;;8.30;;
37069;SDS011;22984;48.862;9.320;2023-02-28T16:50:18;9.82;;;8.27;;
37069;SDS011;22984;48.862;9.320;2023-02-28T16:52:44;10.13;;;8.90;;
37069;SDS011;22984;48.862;9.320;2023-02-28T16:55:10;10.55;;;9.10;;
37069;SDS011;22984;48.862;9.320;2023-02-28T16:57:36;14.80;;;9.67;;
37069;SDS011;22984;48.862;9.320;2023-02-28T17:00:03;13.80;;;10.27;;
37069;SDS011;22984;48.862;9.320;2023-02-28T17:02:30;21.13;;;13.45;;
37069;SDS011;22984;48.862;9.320;2023-02-28T17:04:56;25.57;;;16.20;;